Time;durP1;ratioP1;P1;durP2;ratioP2;P2;SDS_P1;SDS_P2;PMS_P1;PMS_P2;Temp;Humidity;BMP_temperature;BMP_pressure;BME280_temperature;BME280_humidity;BME280_pressure;Samples;Min_cycle;Max_cycle;Signal;HPM_P1;HPM_P2
2022/01/13 00:02:14;;;;;;;178.88;80.30;;;;;;;;;;5074488;28;20112;-66
2022/01/13 00:04:40;;;;;;;160.43;71.97;;;;;;;;;;5074451;28;20021;-64
2022/01/13 00:07:06;;;;;;;172.32;76.50;;;;;;;;;;5074323;28;20095;-64
2022/01/13 00:09:32;;;;;;;174.15;80.13;;;;;;;;;;5074321;28;20024;-64
2022/01/13 00:11:59;;;;;;;168.23;77.53;;;;;;;;;;5074253;28;20028;-65
2022/01/13 00:14:39;;;;;;;165.48;74.95;;;;;;;;;;5074249;28;20032;-65
2022/01/13 00:24:59;;;;;;;156.70;69.53;;;;;;;;;;5073985;28;20036;-66
2022/01/13 00:27:28;;;;;;;179.02;78.38;;;;;;;;;;5056015;28;20079;-65
2022/01/13 00:29:56;;;;;;;159.70;72.97;;;;;;;;;;5055965;28;20495;-66
2022/01/13 00:32:26;;;;;;;141.63;67.20;;;;;;;;;;5073856;28;20417;-64
2022/01/13 00:34:52;;;;;;;160.85;72.90;;;;;;;;;;5073745;28;20045;-64
2022/01/13 00:37:18;;;;;;;163.82;73.47;;;;;;;;;;5055850;28;20388;-66
2022/01/13 00:39:45;;;;;;;157.10;72.47;;;;;;;;;;5073378;28;20096;-66
2022/01/13 00:42:11;;;;;;;149.18;69.55;;;;;;;;;;5073726;28;20021;-70
2022/01/13 00:44:38;;;;;;;144.73;66.43;;;;;;;;;;5055675;28;20119;-67
2022/01/13 00:47:08;;;;;;;129.63;59.38;;;;;;;;;;5055548;28;20079;-64
2022/01/13 00:49:35;;;;;;;128.40;57.13;;;;;;;;;;5073588;28;20436;-63
2022/01/13 00:52:01;;;;;;;111.47;54.40;;;;;;;;;;5073480;28;20178;-65
2022/01/13 00:54:28;;;;;;;144.52;63.45;;;;;;;;;;5055591;28;20048;-66
2022/01/13 00:56:54;;;;;;;155.82;71.07;;;;;;;;;;5073446;28;20024;-65
2022/01/13 00:59:20;;;;;;;173.05;74.78;;;;;;;;;;5055453;28;20579;-65
2022/01/13 01:01:48;;;;;;;172.68;80.57;;;;;;;;;;5055364;28;20036;-65
2022/01/13 01:04:14;;;;;;;181.35;83.05;;;;;;;;;;5055345;28;20065;-65
2022/01/13 01:06:41;;;;;;;186.85;82.13;;;;;;;;;;5073273;28;20131;-65
2022/01/13 01:09:14;;;;;;;168.15;77.22;;;;;;;;;;5055290;28;20028;-66
2022/01/13 01:11:41;;;;;;;156.38;71.47;;;;;;;;;;5055319;28;20027;-69
2022/01/13 01:14:08;;;;;;;159.75;71.45;;;;;;;;;;5055203;28;20024;-69
2022/01/13 01:16:36;;;;;;;162.52;74.43;;;;;;;;;;5055191;28;20051;-64
2022/01/13 01:19:06;;;;;;;146.32;68.90;;;;;;;;;;5073162;28;20460;-64
2022/01/13 01:26:49;;;;;;;162.48;72.18;;;;;;;;;;5073026;28;20476;-64
2022/01/13 01:29:33;;;;;;;174.73;81.13;;;;;;;;;;5073150;28;20536;-64
2022/01/13 01:32:10;;;;;;;189.45;86.28;;;;;;;;;;5073111;28;20059;-64
2022/01/13 01:37:06;;;;;;;194.82;86.30;;;;;;;;;;5073037;28;20043;-64
2022/01/13 01:39:32;;;;;;;183.73;83.63;;;;;;;;;;5054856;28;20024;-65
2022/01/13 01:41:58;;;;;;;158.85;74.90;;;;;;;;;;5072959;28;20475;-67
2022/01/13 01:44:33;;;;;;;154.73;74.43;;;;;;;;;;5072950;28;20021;-63
2022/01/13 01:47:00;;;;;;;152.32;70.35;;;;;;;;;;5072913;28;20052;-66
2022/01/13 01:49:28;;;;;;;149.30;67.07;;;;;;;;;;5072904;28;20036;-64
2022/01/13 01:51:55;;;;;;;145.15;67.47;;;;;;;;;;5076055;28;20082;-64
2022/01/13 01:54:22;;;;;;;149.18;67.00;;;;;;;;;;5076610;28;20426;-65
2022/01/13 01:56:48;;;;;;;155.93;72.18;;;;;;;;;;5076922;28;20060;-64
2022/01/13 01:59:17;;;;;;;147.95;69.43;;;;;;;;;;5058826;28;20036;-65
2022/01/13 02:01:45;;;;;;;150.15;69.00;;;;;;;;;;5076618;28;20025;-65
2022/01/13 02:04:11;;;;;;;150.05;70.22;;;;;;;;;;5076704;28;20086;-66
2022/01/13 02:06:38;;;;;;;153.45;68.07;;;;;;;;;;5058636;28;20033;-67
2022/01/13 02:09:06;;;;;;;147.38;69.53;;;;;;;;;;5076608;28;20063;-65
2022/01/13 02:11:42;;;;;;;139.40;67.55;;;;;;;;;;5076566;28;20058;-66
2022/01/13 02:14:34;;;;;;;139.18;66.25;;;;;;;;;;5076568;28;20029;-66
2022/01/13 02:16:56;;;;;;;135.63;64.97;;;;;;;;;;5075448;28;20044;-68
2022/01/13 02:19:24;;;;;;;137.98;63.80;;;;;;;;;;5076394;28;20170;-66
2022/01/13 02:21:51;;;;;;;135.77;63.38;;;;;;;;;;5076366;28;20201;-65
2022/01/13 02:24:17;;;;;;;133.98;64.03;;;;;;;;;;5076336;28;20024;-67
2022/01/13 02:26:46;;;;;;;136.20;64.20;;;;;;;;;;5058259;28;20032;-64
2022/01/13 02:29:12;;;;;;;138.90;65.45;;;;;;;;;;5076221;28;20111;-64
2022/01/13 02:31:38;;;;;;;139.23;66.32;;;;;;;;;;5076434;28;20064;-65
2022/01/13 02:34:04;;;;;;;135.10;66.50;;;;;;;;;;5057982;28;20119;-65
2022/01/13 02:36:31;;;;;;;148.45;67.47;;;;;;;;;;5075690;28;20045;-65
2022/01/13 02:38:59;;;;;;;140.25;66.93;;;;;;;;;;5076028;28;20111;-67
2022/01/13 02:41:25;;;;;;;148.10;67.90;;;;;;;;;;5075988;28;20040;-65
2022/01/13 02:43:53;;;;;;;140.35;67.53;;;;;;;;;;5058044;28;20028;-67
2022/01/13 02:49:06;;;;;;;142.68;67.15;;;;;;;;;;5075920;28;20037;-64
2022/01/13 02:51:32;;;;;;;140.45;65.50;;;;;;;;;;5076091;28;20056;-66
2022/01/13 02:53:59;;;;;;;133.23;65.88;;;;;;;;;;5075797;28;20028;-64
2022/01/13 02:56:25;;;;;;;135.05;64.32;;;;;;;;;;5075760;28;20055;-66
2022/01/13 02:58:51;;;;;;;134.30;66.20;;;;;;;;;;5075733;28;20028;-66
2022/01/13 03:01:18;;;;;;;139.60;66.72;;;;;;;;;;5057438;28;20111;-64
2022/01/13 03:03:45;;;;;;;143.30;64.80;;;;;;;;;;5057654;28;20044;-65
2022/01/13 03:06:15;;;;;;;145.00;68.90;;;;;;;;;;5057539;28;20028;-66
2022/01/13 03:08:43;;;;;;;155.30;68.22;;;;;;;;;;5075247;28;20447;-66
2022/01/13 03:11:10;;;;;;;148.68;69.55;;;;;;;;;;5075477;28;20035;-65
2022/01/13 03:13:36;;;;;;;147.35;67.55;;;;;;;;;;5057418;28;20411;-66
2022/01/13 03:16:09;;;;;;;141.80;65.57;;;;;;;;;;5075448;28;20488;-67
2022/01/13 03:18:36;;;;;;;141.93;67.57;;;;;;;;;;5075073;28;20066;-65
2022/01/13 03:21:03;;;;;;;141.35;65.03;;;;;;;;;;5075277;28;20017;-66
2022/01/13 03:23:29;;;;;;;139.75;63.53;;;;;;;;;;5057204;28;20074;-67
2022/01/13 03:25:55;;;;;;;143.93;68.90;;;;;;;;;;5057110;28;20064;-65
2022/01/13 03:28:38;;;;;;;150.77;68.57;;;;;;;;;;5075177;28;20041;-67
2022/01/13 03:31:05;;;;;;;152.63;69.65;;;;;;;;;;5075179;28;20526;-68
2022/01/13 03:33:31;;;;;;;139.25;65.88;;;;;;;;;;5075106;28;20082;-66
2022/01/13 03:35:58;;;;;;;170.75;71.65;;;;;;;;;;5074617;28;20044;-65
2022/01/13 03:38:25;;;;;;;149.27;69.03;;;;;;;;;;5074976;28;20074;-65
2022/01/13 03:40:51;;;;;;;161.98;70.13;;;;;;;;;;5074651;28;20454;-66
2022/01/13 03:43:18;;;;;;;145.30;68.85;;;;;;;;;;5074892;28;20048;-65
2022/01/13 03:45:45;;;;;;;150.45;67.03;;;;;;;;;;5074702;28;20028;-67
2022/01/13 03:48:13;;;;;;;152.95;69.80;;;;;;;;;;5074787;28;20036;-65
2022/01/13 03:50:40;;;;;;;143.95;68.25;;;;;;;;;;5074684;28;20111;-68
2022/01/13 03:53:33;;;;;;;154.48;71.30;;;;;;;;;;5074631;28;20066;-64
2022/01/13 03:56:05;;;;;;;153.18;68.85;;;;;;;;;;4973272;28;20049;-66
2022/01/13 03:58:50;;;;;;;157.65;70.05;;;;;;;;;;4973443;28;20038;-67
2022/01/13 04:01:34;;;;;;;145.07;67.60;;;;;;;;;;4973358;28;20042;-67
2022/01/13 04:04:00;;;;;;;149.20;66.88;;;;;;;;;;4957106;28;20118;-64
2022/01/13 04:06:37;;;;;;;152.82;67.93;;;;;;;;;;4957027;28;20146;-64
2022/01/13 04:09:05;;;;;;;150.18;69.85;;;;;;;;;;4973226;28;20034;-64
2022/01/13 04:11:32;;;;;;;162.40;72.32;;;;;;;;;;4957285;28;20434;-64
2022/01/13 04:14:04;;;;;;;152.88;69.63;;;;;;;;;;4956203;28;20137;-65
2022/01/13 04:16:33;;;;;;;150.40;67.50;;;;;;;;;;4973192;28;20081;-64
2022/01/13 04:19:04;;;;;;;148.20;68.47;;;;;;;;;;4972998;28;20053;-64
2022/01/13 04:21:30;;;;;;;163.00;71.95;;;;;;;;;;4973084;28;20587;-65
2022/01/13 04:23:57;;;;;;;169.43;75.97;;;;;;;;;;4956755;28;20130;-65
2022/01/13 04:26:30;;;;;;;209.95;90.18;;;;;;;;;;4972844;28;20061;-64
2022/01/13 04:31:35;;;;;;;156.38;72.50;;;;;;;;;;4974532;28;20407;-64
2022/01/13 04:34:02;;;;;;;160.15;71.43;;;;;;;;;;5073581;28;20445;-65
2022/01/13 04:36:28;;;;;;;165.95;73.13;;;;;;;;;;5073958;28;20158;-64
2022/01/13 04:38:54;;;;;;;169.55;74.75;;;;;;;;;;5055717;28;20116;-66
2022/01/13 04:41:31;;;;;;;145.80;67.53;;;;;;;;;;5073659;28;20028;-66
2022/01/13 04:43:57;;;;;;;153.43;71.18;;;;;;;;;;5073691;28;20024;-65
2022/01/13 04:46:24;;;;;;;162.33;72.03;;;;;;;;;;5055641;28;20082;-65
2022/01/13 04:48:50;;;;;;;158.07;70.78;;;;;;;;;;5073267;28;20115;-65
2022/01/13 04:51:17;;;;;;;170.93;76.70;;;;;;;;;;5055576;28;20119;-64
2022/01/13 04:53:43;;;;;;;159.13;72.47;;;;;;;;;;5073522;28;20040;-65
2022/01/13 04:56:25;;;;;;;188.75;80.45;;;;;;;;;;5073442;28;20491;-65
2022/01/13 04:58:51;;;;;;;172.02;78.35;;;;;;;;;;5055457;28;20043;-67
2022/01/13 05:01:18;;;;;;;185.07;84.32;;;;;;;;;;5073681;28;20099;-63
2022/01/13 05:03:44;;;;;;;186.03;86.13;;;;;;;;;;5055391;28;20470;-65
2022/01/13 05:06:12;;;;;;;200.00;93.57;;;;;;;;;;5073353;28;20111;-64
2022/01/13 05:08:39;;;;;;;210.50;91.73;;;;;;;;;;5073321;28;20042;-66
2022/01/13 05:11:05;;;;;;;215.93;98.33;;;;;;;;;;5073273;28;20055;-66
2022/01/13 05:13:32;;;;;;;233.20;100.90;;;;;;;;;;5072882;28;20357;-66
2022/01/13 05:15:58;;;;;;;224.33;102.77;;;;;;;;;;5073239;28;20059;-65
2022/01/13 05:18:42;;;;;;;218.00;98.97;;;;;;;;;;5073188;28;20017;-66
2022/01/13 05:21:19;;;;;;;218.00;97.07;;;;;;;;;;5073176;28;20106;-66
2022/01/13 05:23:46;;;;;;;219.47;96.70;;;;;;;;;;5073242;28;20036;-67
2022/01/13 05:26:12;;;;;;;224.73;99.93;;;;;;;;;;5072098;28;20519;-66
2022/01/13 05:28:41;;;;;;;224.73;98.57;;;;;;;;;;5073136;28;20119;-65
2022/01/13 05:31:07;;;;;;;213.63;102.00;;;;;;;;;;5073019;28;20025;-64
2022/01/13 05:33:33;;;;;;;237.77;111.67;;;;;;;;;;5073026;28;20028;-64
2022/01/13 05:36:01;;;;;;;231.50;109.90;;;;;;;;;;5054525;28;20044;-65
2022/01/13 05:38:28;;;;;;;230.93;105.50;;;;;;;;;;5072960;28;20522;-67
2022/01/13 05:40:54;;;;;;;206.97;95.03;;;;;;;;;;5072929;28;20111;-67
2022/01/13 05:43:21;;;;;;;222.17;99.50;;;;;;;;;;5072861;28;20032;-65
2022/01/13 05:45:47;;;;;;;262.50;112.60;;;;;;;;;;5054867;28;20499;-65
2022/01/13 05:48:13;;;;;;;240.70;112.37;;;;;;;;;;5072913;28;20097;-66
2022/01/13 05:50:40;;;;;;;218.87;104.30;;;;;;;;;;5054757;28;20033;-67
2022/01/13 05:53:07;;;;;;;212.10;97.33;;;;;;;;;;5072822;28;20475;-65
2022/01/13 05:55:34;;;;;;;232.77;104.00;;;;;;;;;;5054707;28;20437;-65
2022/01/13 05:58:00;;;;;;;200.57;93.07;;;;;;;;;;5054759;28;20094;-65
2022/01/13 06:00:26;;;;;;;199.00;91.40;;;;;;;;;;5072758;28;20542;-68
2022/01/13 06:02:53;;;;;;;191.13;90.00;;;;;;;;;;5054753;28;20148;-66
2022/01/13 06:05:20;;;;;;;183.30;84.03;;;;;;;;;;5072598;28;20032;-69
2022/01/13 06:07:46;;;;;;;183.83;88.30;;;;;;;;;;5054707;28;20778;-66
2022/01/13 06:10:18;;;;;;;197.57;93.47;;;;;;;;;;5072635;28;20060;-67
2022/01/13 06:12:44;;;;;;;198.90;96.93;;;;;;;;;;5072706;28;20025;-66
2022/01/13 06:15:11;;;;;;;187.40;88.43;;;;;;;;;;5072516;28;20028;-68
2022/01/13 06:17:38;;;;;;;207.67;100.33;;;;;;;;;;5054334;28;20094;-67
2022/01/13 06:20:06;;;;;;;197.87;90.60;;;;;;;;;;5072570;28;20059;-67
2022/01/13 06:22:32;;;;;;;213.10;99.53;;;;;;;;;;5054259;28;20039;-66
2022/01/13 06:24:58;;;;;;;214.00;94.37;;;;;;;;;;5054549;28;20033;-66
2022/01/13 06:27:24;;;;;;;200.23;95.80;;;;;;;;;;5072484;28;20071;-66
2022/01/13 06:29:52;;;;;;;192.97;89.80;;;;;;;;;;5072089;28;20381;-68
2022/01/13 06:32:19;;;;;;;171.87;78.97;;;;;;;;;;5054435;28;20031;-66
2022/01/13 06:34:45;;;;;;;164.33;76.50;;;;;;;;;;5072150;28;20129;-67
2022/01/13 06:37:11;;;;;;;168.40;76.83;;;;;;;;;;5074250;28;20024;-64
2022/01/13 06:39:38;;;;;;;154.13;76.27;;;;;;;;;;5075907;28;20054;-67
2022/01/13 06:42:04;;;;;;;175.97;82.30;;;;;;;;;;5057924;28;20086;-66
2022/01/13 06:44:31;;;;;;;196.17;87.43;;;;;;;;;;5057967;28;20070;-68
2022/01/13 06:46:57;;;;;;;176.67;82.47;;;;;;;;;;5075750;28;20033;-65
2022/01/13 06:49:24;;;;;;;180.77;81.43;;;;;;;;;;5075547;28;20472;-65
2022/01/13 06:51:50;;;;;;;154.40;75.60;;;;;;;;;;5075786;28;20029;-66
2022/01/13 06:54:16;;;;;;;159.53;74.60;;;;;;;;;;5075673;28;20436;-65
2022/01/13 06:56:42;;;;;;;159.70;71.23;;;;;;;;;;5075997;28;20025;-69
2022/01/13 06:59:11;;;;;;;148.60;68.80;;;;;;;;;;5045916;28;20112;-66
2022/01/13 07:01:40;;;;;;;157.83;69.10;;;;;;;;;;5050398;28;20079;-67
2022/01/13 07:04:12;;;;;;;160.43;70.50;;;;;;;;;;5071168;28;20025;-65
2022/01/13 07:06:38;;;;;;;;;;;;;;;;;;5063083;28;20432;-68
2022/01/13 07:09:06;;;;;;;217.83;89.60;;;;;;;;;;5057615;28;19912;-66
2022/01/13 07:11:33;;;;;;;176.40;78.53;;;;;;;;;;5057258;28;20517;-69
2022/01/13 07:13:59;;;;;;;174.93;76.13;;;;;;;;;;5057279;28;20116;-71
2022/01/13 07:16:26;;;;;;;151.80;71.37;;;;;;;;;;5075302;28;20064;-67
2022/01/13 07:18:52;;;;;;;151.63;73.43;;;;;;;;;;5075374;28;20036;-69
2022/01/13 07:21:19;;;;;;;150.03;68.30;;;;;;;;;;5075233;28;20469;-69
2022/01/13 07:23:45;;;;;;;148.00;68.10;;;;;;;;;;5075405;28;20031;-64
2022/01/13 07:26:11;;;;;;;142.73;69.87;;;;;;;;;;5072698;28;20029;-68
2022/01/13 07:28:38;;;;;;;150.57;67.80;;;;;;;;;;5075124;28;20040;-68
2022/01/13 07:31:04;;;;;;;143.03;67.93;;;;;;;;;;5056580;28;20032;-67
2022/01/13 07:33:30;;;;;;;153.20;67.47;;;;;;;;;;5056993;28;20060;-67
2022/01/13 07:35:56;;;;;;;142.80;69.43;;;;;;;;;;5056478;28;20049;-66
2022/01/13 07:38:22;;;;;;;147.03;68.93;;;;;;;;;;5054831;28;20036;-67
2022/01/13 07:40:49;;;;;;;192.00;79.55;;;;;;;;;;5036869;28;20084;-64
2022/01/13 07:43:23;;;;;;;226.80;94.20;;;;;;;;;;5054762;28;20025;-66
2022/01/13 07:45:50;;;;;;;225.30;92.80;;;;;;;;;;5036756;28;20396;-67
2022/01/13 07:48:17;;;;;;;190.50;80.43;;;;;;;;;;5053627;28;20065;-65
2022/01/13 07:50:44;;;;;;;174.03;79.83;;;;;;;;;;5036292;28;20541;-66
2022/01/13 07:53:10;;;;;;;132.07;59.30;;;;;;;;;;5054526;28;20568;-73
2022/01/13 07:55:36;;;;;;;127.13;63.17;;;;;;;;;;5054586;28;20083;-67
2022/01/13 07:58:03;;;;;;;129.60;62.07;;;;;;;;;;5036532;28;20029;-65
2022/01/13 08:00:29;;;;;;;123.65;57.70;;;;;;;;;;5054390;28;20023;-68
2022/01/13 08:02:55;;;;;;;126.43;58.93;;;;;;;;;;5054315;28;20037;-70
2022/01/13 08:05:22;;;;;;;124.38;60.08;;;;;;;;;;5054225;28;20032;-67
2022/01/13 08:07:48;;;;;;;131.15;61.53;;;;;;;;;;5036223;28;20064;-65
2022/01/13 08:10:14;;;;;;;132.80;63.08;;;;;;;;;;5035610;28;20128;-68
2022/01/13 08:12:41;;;;;;;136.77;63.22;;;;;;;;;;5054129;28;20025;-67
2022/01/13 08:15:12;;;;;;;130.02;61.35;;;;;;;;;;5054100;28;20020;-68
2022/01/13 08:20:23;;;;;;;132.23;61.13;;;;;;;;;;5054041;28;20082;-65
2022/01/13 08:22:49;;;;;;;123.53;60.00;;;;;;;;;;5035717;28;20033;-67
2022/01/13 08:25:17;;;;;;;129.10;59.47;;;;;;;;;;5053708;28;20025;-66
2022/01/13 08:27:43;;;;;;;142.40;64.95;;;;;;;;;;5053658;28;20024;-64
2022/01/13 08:30:10;;;;;;;144.23;66.93;;;;;;;;;;5050476;28;20472;-64
2022/01/13 08:32:36;;;;;;;124.50;60.13;;;;;;;;;;5069283;28;20032;-64
2022/01/13 08:35:03;;;;;;;130.50;62.25;;;;;;;;;;5059907;28;20052;-64
2022/01/13 08:37:30;;;;;;;136.73;67.43;;;;;;;;;;5073641;28;20082;-66
2022/01/13 08:39:58;;;;;;;141.77;67.63;;;;;;;;;;5071216;28;20029;-65
2022/01/13 08:42:24;;;;;;;134.45;66.32;;;;;;;;;;5072211;28;20456;-65
2022/01/13 08:44:51;;;;;;;143.90;70.18;;;;;;;;;;5073440;28;20032;-66
2022/01/13 08:47:17;;;;;;;148.65;67.03;;;;;;;;;;5073300;28;20036;-66
2022/01/13 08:49:43;;;;;;;131.30;62.88;;;;;;;;;;5073461;28;20036;-65
2022/01/13 08:52:10;;;;;;;148.70;71.93;;;;;;;;;;5071754;28;20024;-67
2022/01/13 08:54:36;;;;;;;148.73;72.28;;;;;;;;;;5073143;28;20029;-64
2022/01/13 08:57:02;;;;;;;143.15;67.72;;;;;;;;;;5073291;28;20039;-66
2022/01/13 08:59:29;;;;;;;138.32;68.85;;;;;;;;;;5072138;28;20029;-66
2022/01/13 09:01:55;;;;;;;149.60;74.43;;;;;;;;;;5073258;28;20524;-66
2022/01/13 09:04:22;;;;;;;145.45;73.57;;;;;;;;;;5073206;28;20024;-65
2022/01/13 09:06:48;;;;;;;138.10;64.80;;;;;;;;;;5072992;28;20050;-66
2022/01/13 09:09:14;;;;;;;150.77;74.43;;;;;;;;;;5073259;28;20033;-70
2022/01/13 09:11:41;;;;;;;149.55;72.03;;;;;;;;;;5072813;28;20396;-69
2022/01/13 09:14:07;;;;;;;143.98;71.38;;;;;;;;;;5073107;28;20027;-67
2022/01/13 09:16:41;;;;;;;142.65;72.80;;;;;;;;;;5071673;28;20059;-65
2022/01/13 09:19:12;;;;;;;151.80;74.63;;;;;;;;;;5072101;28;20028;-67
2022/01/13 09:21:39;;;;;;;157.35;76.28;;;;;;;;;;5073069;28;20099;-65
2022/01/13 09:24:06;;;;;;;147.50;72.40;;;;;;;;;;5072812;28;20028;-71
2022/01/13 09:26:33;;;;;;;135.68;67.00;;;;;;;;;;5071301;28;20032;-71
2022/01/13 09:28:59;;;;;;;138.38;65.78;;;;;;;;;;5072864;28;20028;-72
2022/01/13 09:31:26;;;;;;;133.25;64.03;;;;;;;;;;5070806;28;20033;-72
2022/01/13 09:33:53;;;;;;;139.50;65.43;;;;;;;;;;5069953;28;20357;-70
2022/01/13 09:36:20;;;;;;;135.35;64.88;;;;;;;;;;5072768;28;20098;-71
2022/01/13 09:38:46;;;;;;;164.82;76.60;;;;;;;;;;5054925;28;20036;-71
2022/01/13 09:41:13;;;;;;;148.70;70.90;;;;;;;;;;5054803;28;20035;-71
2022/01/13 09:43:43;;;;;;;152.85;67.60;;;;;;;;;;5072819;28;20028;-70
2022/01/13 09:46:09;;;;;;;147.02;66.90;;;;;;;;;;5072195;28;20081;-70
2022/01/13 09:48:38;;;;;;;131.30;64.22;;;;;;;;;;5072385;28;20112;-71
2022/01/13 09:51:05;;;;;;;141.02;67.97;;;;;;;;;;5054859;28;20449;-71
2022/01/13 09:53:31;;;;;;;145.10;72.00;;;;;;;;;;5054723;28;20074;-70
2022/01/13 09:55:57;;;;;;;151.25;71.15;;;;;;;;;;5054878;28;20024;-72
2022/01/13 09:58:23;;;;;;;125.75;58.92;;;;;;;;;;5072476;28;20029;-71
2022/01/13 10:00:49;;;;;;;126.28;60.65;;;;;;;;;;5072726;28;20087;-70
2022/01/13 10:03:26;;;;;;;128.43;64.90;;;;;;;;;;5072644;28;20029;-69
2022/01/13 10:05:59;;;;;;;135.55;62.80;;;;;;;;;;5072650;28;20353;-69
2022/01/13 10:08:46;;;;;;;159.52;74.85;;;;;;;;;;5072652;28;20060;-68
2022/01/13 10:11:32;;;;;;;105.35;54.28;;;;;;;;;;5054627;28;20031;-71
2022/01/13 10:14:06;;;;;;;90.65;45.00;;;;;;;;;;5058536;28;20491;-72
2022/01/13 10:16:32;;;;;;;99.35;48.20;;;;;;;;;;5058394;28;20032;-71
2022/01/13 10:18:59;;;;;;;91.90;45.30;;;;;;;;;;5058503;28;20029;-71
2022/01/13 10:21:26;;;;;;;97.82;45.67;;;;;;;;;;5076358;28;20086;-71
2022/01/13 10:24:02;;;;;;;93.68;46.10;;;;;;;;;;5076367;28;20029;-69
2022/01/13 10:26:29;;;;;;;93.90;44.67;;;;;;;;;;5076073;28;20116;-70
2022/01/13 10:28:56;;;;;;;89.85;43.53;;;;;;;;;;5058163;28;20029;-71
2022/01/13 10:31:22;;;;;;;85.57;41.75;;;;;;;;;;5076171;28;20036;-68
2022/01/13 10:33:48;;;;;;;85.88;41.75;;;;;;;;;;5076363;28;20456;-71
2022/01/13 10:36:14;;;;;;;68.03;33.38;;;;;;;;;;5076160;28;20059;-71
2022/01/13 10:38:54;;;;;;;84.93;41.70;;;;;;;;;;5076076;28;20494;-71
2022/01/13 10:41:30;;;;;;;77.25;38.28;;;;;;;;;;5058317;28;20350;-70
2022/01/13 10:44:15;;;;;;;68.22;33.78;;;;;;;;;;5076000;28;20115;-70
2022/01/13 10:47:02;;;;;;;65.00;34.00;;;;;;;;;;5057845;28;20054;-70
2022/01/13 10:49:35;;;;;;;70.78;35.17;;;;;;;;;;5057975;28;20039;-72
2022/01/13 10:52:21;;;;;;;67.43;34.58;;;;;;;;;;5076037;28;20126;-71
2022/01/13 10:54:47;;;;;;;61.60;30.70;;;;;;;;;;5057921;28;20113;-71
2022/01/13 10:57:17;;;;;;;69.53;32.83;;;;;;;;;;5075637;28;20047;-70
2022/01/13 10:59:44;;;;;;;72.82;32.22;;;;;;;;;;5075612;28;20052;-71
2022/01/13 11:02:10;;;;;;;59.28;30.17;;;;;;;;;;5057601;28;20379;-72
2022/01/13 11:04:37;;;;;;;60.10;29.17;;;;;;;;;;5042733;28;20032;-70
2022/01/13 11:07:24;;;;;;;64.93;29.58;;;;;;;;;;5053598;28;20454;-68
2022/01/13 11:09:53;;;;;;;57.08;28.75;;;;;;;;;;5057406;28;20357;-68
2022/01/13 11:12:31;;;;;;;59.75;30.40;;;;;;;;;;5074803;28;20032;-68
2022/01/13 11:15:05;;;;;;;65.65;32.28;;;;;;;;;;5056775;28;20353;-66
2022/01/13 11:17:40;;;;;;;61.00;30.73;;;;;;;;;;5073407;28;20097;-69
2022/01/13 11:20:07;;;;;;;63.08;31.05;;;;;;;;;;5075106;28;20032;-68
2022/01/13 11:22:35;;;;;;;63.25;29.60;;;;;;;;;;5057147;28;20481;-68
2022/01/13 11:25:07;;;;;;;54.65;27.20;;;;;;;;;;5075204;28;20024;-68
2022/01/13 11:27:33;;;;;;;57.95;25.95;;;;;;;;;;5057097;28;20028;-70
2022/01/13 11:30:00;;;;;;;52.40;26.63;;;;;;;;;;5075153;28;20048;-68
2022/01/13 11:32:26;;;;;;;64.43;31.27;;;;;;;;;;5057043;28;20051;-68
2022/01/13 11:34:53;;;;;;;60.92;27.13;;;;;;;;;;5060188;28;20045;-68
2022/01/13 11:37:19;;;;;;;71.57;34.67;;;;;;;;;;5072819;28;20448;-71
2022/01/13 11:39:46;;;;;;;63.25;30.45;;;;;;;;;;5072233;28;20135;-69
2022/01/13 11:42:14;;;;;;;65.47;29.38;;;;;;;;;;5071998;28;20085;-68
2022/01/13 11:44:40;;;;;;;58.00;28.60;;;;;;;;;;5073246;28;20024;-68
2022/01/13 11:47:22;;;;;;;68.25;31.90;;;;;;;;;;5073179;28;20060;-69
2022/01/13 11:52:39;;;;;;;57.92;27.85;;;;;;;;;;5074448;28;19908;-66
2022/01/13 11:55:21;;;;;;;66.68;31.17;;;;;;;;;;5074465;28;20028;-70
2022/01/13 11:57:48;;;;;;;60.45;29.45;;;;;;;;;;5074091;28;20118;-68
2022/01/13 12:00:17;;;;;;;65.97;30.90;;;;;;;;;;5074488;28;20032;-66
2022/01/13 12:02:44;;;;;;;55.63;27.52;;;;;;;;;;5074695;28;20020;-68
2022/01/13 12:05:16;;;;;;;57.90;28.65;;;;;;;;;;5074550;28;20475;-68
2022/01/13 12:07:46;;;;;;;58.25;29.05;;;;;;;;;;5072922;28;20033;-69
2022/01/13 12:10:33;;;;;;;60.17;29.00;;;;;;;;;;5072904;28;20036;-66
2022/01/13 12:12:59;;;;;;;53.67;27.13;;;;;;;;;;5073759;28;20115;-69
2022/01/13 12:15:25;;;;;;;80.68;34.88;;;;;;;;;;5072374;28;20028;-68
2022/01/13 12:17:57;;;;;;;68.53;28.80;;;;;;;;;;5074378;28;20135;-69
2022/01/13 12:20:23;;;;;;;;;;;;;;;;;;5073086;28;20040;-68
2022/01/13 12:23:05;;;;;;;55.53;26.25;;;;;;;;;;5072826;28;19909;-69
2022/01/13 12:25:32;;;;;;;54.83;27.08;;;;;;;;;;5072865;28;20418;-67
2022/01/13 12:27:59;;;;;;;78.15;33.15;;;;;;;;;;5073938;28;20033;-67
2022/01/13 12:30:28;;;;;;;61.03;30.00;;;;;;;;;;5073953;28;20021;-66
2022/01/13 12:33:03;;;;;;;64.50;29.48;;;;;;;;;;5072432;28;20111;-70
2022/01/13 12:35:39;;;;;;;58.97;28.15;;;;;;;;;;5073000;28;20052;-68
2022/01/13 12:38:05;;;;;;;61.00;29.58;;;;;;;;;;5074035;28;20100;-69
2022/01/13 12:40:41;;;;;;;66.43;31.75;;;;;;;;;;5055822;28;20376;-69
2022/01/13 12:46:26;;;;;;;57.65;29.60;;;;;;;;;;5073282;28;20110;-70
2022/01/13 12:48:54;;;;;;;63.30;28.92;;;;;;;;;;5073562;28;20078;-67
2022/01/13 12:51:21;;;;;;;67.97;31.33;;;;;;;;;;5073138;28;20436;-70
2022/01/13 12:53:48;;;;;;;64.18;31.17;;;;;;;;;;5055497;28;20029;-68
2022/01/13 12:56:14;;;;;;;75.82;35.33;;;;;;;;;;5055267;28;20037;-67
2022/01/13 12:58:42;;;;;;;75.00;34.70;;;;;;;;;;5073474;28;20029;-69
2022/01/13 13:01:18;;;;;;;84.60;40.08;;;;;;;;;;5055532;28;20050;-68
2022/01/13 13:03:58;;;;;;;68.78;33.10;;;;;;;;;;5055499;28;20030;-70
2022/01/13 13:06:24;;;;;;;71.93;35.15;;;;;;;;;;5055244;28;20098;-70
2022/01/13 13:08:50;;;;;;;66.97;32.70;;;;;;;;;;5072895;28;20396;-70
2022/01/13 13:11:16;;;;;;;70.75;34.60;;;;;;;;;;5054928;28;20024;-70
2022/01/13 13:13:50;;;;;;;77.18;36.80;;;;;;;;;;5054954;28;20028;-72
2022/01/13 13:16:17;;;;;;;68.00;33.35;;;;;;;;;;5073224;28;20479;-71
2022/01/13 13:18:43;;;;;;;63.78;32.38;;;;;;;;;;5055129;28;20048;-70
2022/01/13 13:21:11;;;;;;;74.00;33.92;;;;;;;;;;5055193;28;20024;-70
2022/01/13 13:23:38;;;;;;;65.10;31.35;;;;;;;;;;5054967;28;20024;-70
2022/01/13 13:26:10;;;;;;;72.93;33.30;;;;;;;;;;5072989;28;20429;-70
2022/01/13 13:28:40;;;;;;;74.18;34.13;;;;;;;;;;5073031;28;20028;-70
2022/01/13 13:31:08;;;;;;;85.30;38.80;;;;;;;;;;5073006;28;20024;-70
2022/01/13 13:33:39;;;;;;;68.65;32.92;;;;;;;;;;5054971;28;20539;-70
2022/01/13 13:36:07;;;;;;;67.00;34.30;;;;;;;;;;5067974;28;20424;-69
2022/01/13 13:38:45;;;;;;;72.15;34.40;;;;;;;;;;5072967;28;20027;-72
2022/01/13 13:41:12;;;;;;;73.55;34.53;;;;;;;;;;5071635;28;20021;-70
2022/01/13 13:43:38;;;;;;;70.90;33.80;;;;;;;;;;5072692;28;20380;-72
2022/01/13 13:46:04;;;;;;;65.93;32.88;;;;;;;;;;5071638;28;20357;-69
2022/01/13 13:48:31;;;;;;;67.38;32.92;;;;;;;;;;5075780;28;20070;-70
2022/01/13 13:50:57;;;;;;;78.72;35.65;;;;;;;;;;5075796;28;20021;-70
2022/01/13 13:53:23;;;;;;;73.75;35.05;;;;;;;;;;5077041;28;20406;-69
2022/01/13 13:56:07;;;;;;;85.30;39.50;;;;;;;;;;5075607;28;20514;-70
2022/01/13 13:58:34;;;;;;;124.47;53.33;;;;;;;;;;5075639;28;20111;-71
2022/01/13 14:01:07;;;;;;;78.45;39.08;;;;;;;;;;5076853;28;20115;-72
2022/01/13 14:03:40;;;;;;;72.03;35.10;;;;;;;;;;5076778;28;20044;-69
2022/01/13 14:06:07;;;;;;;78.97;37.40;;;;;;;;;;5076657;28;20025;-70
2022/01/13 14:08:34;;;;;;;73.35;35.40;;;;;;;;;;5076752;28;20079;-71
2022/01/13 14:11:07;;;;;;;67.15;33.53;;;;;;;;;;5076691;28;20032;-70
2022/01/13 14:13:34;;;;;;;76.07;36.58;;;;;;;;;;5075238;28;20020;-69
2022/01/13 14:16:00;;;;;;;66.55;33.25;;;;;;;;;;5075152;28;20038;-70
2022/01/13 14:18:26;;;;;;;77.50;38.15;;;;;;;;;;5075264;28;20028;-70
2022/01/13 14:20:52;;;;;;;81.93;38.35;;;;;;;;;;5074791;28;20108;-70
2022/01/13 14:23:23;;;;;;;78.93;33.70;;;;;;;;;;5076704;28;20112;-70
2022/01/13 14:25:50;;;;;;;79.60;37.55;;;;;;;;;;5076266;28;20032;-70
2022/01/13 14:28:22;;;;;;;94.65;43.83;;;;;;;;;;5076229;28;20024;-70
2022/01/13 14:30:49;;;;;;;96.13;45.35;;;;;;;;;;5076428;28;20030;-68
2022/01/13 14:33:18;;;;;;;76.68;37.33;;;;;;;;;;5074634;28;20116;-70
2022/01/13 14:35:46;;;;;;;79.30;36.22;;;;;;;;;;5067765;28;20057;-70
2022/01/13 14:38:13;;;;;;;82.30;38.65;;;;;;;;;;5072130;28;20016;-69
2022/01/13 14:40:43;;;;;;;75.85;36.05;;;;;;;;;;5076104;28;20029;-66
2022/01/13 14:43:17;;;;;;;80.32;37.92;;;;;;;;;;5038392;28;20056;-66
2022/01/13 14:45:44;;;;;;;78.15;36.25;;;;;;;;;;5074015;28;20028;-72
2022/01/13 14:48:10;;;;;;;73.07;37.35;;;;;;;;;;5075004;28;20029;-68